ASN logo
Last updated: 18 September 2021
Statuts:Préliminaire
Date:mardi 18 mai 2004
Heure:ca 10:50
Type/Sous-type:Silhouette image of generic IL76 model; specific model in this crash may look slightly different
Iliouchine Il-76TD
Opérant pour:Azal Cargo
Loué à :Silk Way Airlines
Immatriculation: 4K-AZ27
Numéro de série: 0053460827
Année de Fabrication: 1985
Moteurs: 4 Soloviev D-30KP-2
Equipage:victimes: 7 / à bord: 7
Passagers:victimes: 0 / à bord: 0
Total:victimes: 7 / à bord: 7
Dégats de l'appareil: Perte Totale
Conséquences: Written off (damaged beyond repair)
Lieu de l'accident:10 km (6.3 milles) de Urumqi Airport (URC) (   Chine)
Phase de vol: En montée initiale (ICL)
Nature:Cargo
Aéroport de départ:Urumqi Airport (URC/ZWWW), Chine
Aéroport de destination:Baku-Heydar Aliyev International Airport (GYD/UBBB), Azerbaidjan
Détails:
The Ilyushin freighter, loaded with clothes and convenience goods, departed Taiyuan, China at 05:50 for a cargo flight to Riga, Latvia. Intermediate stops were planned at Urumqi and Baku, Azerbaijan. The airplane touched down at Urumqi at 09:10, taxied to the apron where it was refueled. At 10:48 the flight took off from Urumqi for the next leg to Baku. Some two minutes after takeoff the plane apparently descended, crashing nose-first into a farm.

Sources:
» Channelnewsasia,
» MAK
» Xinhua
» Itar-tass

METAR Weather report:
02:00 UTC / 10:00 local time:
ZWWW 180200Z 17010MPS CAVOK 30/M32 Q1012 NOSIG=

03:00 UTC / 11:00 local time:
ZWWW 180300Z 16010MPS CAVOK 33/M30 Q1011 NOSIG=


Photos

photo of Ilyushin-Il-76TD-4K-AZ27
accident date: 18-05-2004
type: Ilyushin Il-76TD
registration: 4K-AZ27
 

Plan
Ce plan montre l'aéroport de départ ainsi que la supposée destination du vol. La ligne fixe reliant les deux aéroports n'est pas le plan de vol exact.
La distance entre Urumqi Airport et Baku-Heydar Aliyev International Airport est de 3059 km (1912 miles).
Accident location: Global; accuracy within tens or hundreds of kilometers.

Les informations ci-dessus ne représentent pas l'opinion de la 'Flight Safety Foundation' ou de 'Aviation Safety Network' sur les causes de l'accident. Ces informations prélimimaires sont basées sur les faits tel qu'ils sont connus à ce jour.
languages: languages

Share